Time;durP1;ratioP1;P1;durP2;ratioP2;P2;SDS_P1;SDS_P2;PMS_P1;PMS_P2;Temp;Humidity;BMP_temperature;BMP_pressure;BME280_temperature;BME280_humidity;BME280_pressure;Samples;Min_cycle;Max_cycle;Signal;HPM_P1;HPM_P2
2022/12/19 00:02:11;;;;;;;46.80;25.27;;;1.80;95.40;;;;;;5033474;28;20022;-80
2022/12/19 00:04:37;;;;;;;50.60;24.23;;;1.80;95.50;;;;;;5033508;28;20056;-81
2022/12/19 00:07:03;;;;;;;48.63;24.57;;;1.90;95.50;;;;;;5033557;28;20040;-81
2022/12/19 00:09:28;;;;;;;48.47;24.37;;;1.80;95.60;;;;;;5033279;28;20057;-81
2022/12/19 00:11:54;;;;;;;49.93;24.67;;;1.90;95.70;;;;;;5032943;28;20025;-81
2022/12/19 00:14:20;;;;;;;50.13;23.47;;;1.90;95.70;;;;;;5033281;28;20026;-81
2022/12/19 00:16:46;;;;;;;50.83;24.47;;;1.90;95.90;;;;;;5033373;28;20026;-81
2022/12/19 00:19:11;;;;;;;51.93;24.63;;;1.90;95.90;;;;;;5033279;28;20049;-81
2022/12/19 00:21:38;;;;;;;54.20;26.50;;;2.00;96.00;;;;;;5049806;28;20033;-81
2022/12/19 00:24:06;;;;;;;51.40;25.73;;;2.00;96.20;;;;;;5033098;28;20072;-81
2022/12/19 00:26:35;;;;;;;54.00;25.47;;;2.00;96.40;;;;;;5034298;28;20025;-81
2022/12/19 00:29:06;;;;;;;55.07;27.00;;;1.90;96.70;;;;;;5034351;28;20029;-81
2022/12/19 00:31:34;;;;;;;56.77;27.77;;;1.90;96.70;;;;;;5032929;28;20518;-81
2022/12/19 00:34:00;;;;;;;53.17;26.70;;;1.90;97.00;;;;;;5032884;28;20049;-82
2022/12/19 00:36:28;;;;;;;54.80;26.50;;;1.90;97.30;;;;;;5033060;28;20030;-81
2022/12/19 00:38:56;;;;;;;51.23;26.40;;;1.90;97.50;;;;;;5049395;28;20115;-81
2022/12/19 00:41:27;;;;;;;57.50;28.93;;;1.90;97.60;;;;;;5032299;28;20038;-81
2022/12/19 00:43:55;;;;;;;56.17;27.27;;;1.90;97.90;;;;;;5032838;28;20026;-81
2022/12/19 00:46:21;;;;;;;49.60;25.57;;;1.90;98.20;;;;;;5032557;28;20071;-81
2022/12/19 00:48:47;;;;;;;54.77;27.47;;;2.00;98.50;;;;;;5032754;28;20029;-80
2022/12/19 00:51:18;;;;;;;55.30;27.20;;;1.90;98.40;;;;;;5048645;28;20044;-81
2022/12/19 00:53:45;;;;;;;53.00;27.83;;;1.90;98.60;;;;;;5032638;28;20051;-80
2022/12/19 00:56:14;;;;;;;51.87;27.47;;;1.90;98.90;;;;;;5034155;28;20033;-81
2022/12/19 00:58:40;;;;;;;54.00;26.33;;;1.90;99.20;;;;;;5032451;28;20021;-80
2022/12/19 01:01:13;;;;;;;54.17;28.83;;;1.90;99.20;;;;;;5032439;28;20030;-81
2022/12/19 01:03:38;;;;;;;52.67;27.13;;;2.00;99.80;;;;;;5033744;28;20030;-81
2022/12/19 01:06:05;;;;;;;57.97;27.23;;;1.90;99.70;;;;;;5031964;28;20023;-81
2022/12/19 01:08:31;;;;;;;60.70;29.23;;;1.90;99.60;;;;;;5033450;28;20117;-81
2022/12/19 01:10:57;;;;;;;49.13;26.37;;;1.90;99.90;;;;;;5032316;28;20452;-80
2022/12/19 01:13:24;;;;;;;57.07;27.57;;;1.90;99.90;;;;;;5032372;28;20067;-81
2022/12/19 01:15:50;;;;;;;50.70;25.93;;;1.90;99.90;;;;;;5033498;28;20098;-81
2022/12/19 01:18:15;;;;;;;51.90;27.10;;;1.90;99.90;;;;;;5032236;28;20474;-80
2022/12/19 01:20:46;;;;;;;54.20;27.93;;;1.90;99.90;;;;;;5031402;28;20041;-80
2022/12/19 01:23:13;;;;;;;54.80;26.80;;;1.90;99.90;;;;;;5033632;28;20028;-80
2022/12/19 01:25:38;;;;;;;53.37;25.83;;;1.90;99.90;;;;;;5031936;28;20026;-80
2022/12/19 01:28:05;;;;;;;48.40;24.07;;;2.00;99.90;;;;;;5032041;28;20033;-80
2022/12/19 01:30:32;;;;;;;47.83;24.17;;;2.00;99.90;;;;;;5032504;28;20181;-80
2022/12/19 01:32:59;;;;;;;46.20;24.13;;;2.10;99.90;;;;;;5033582;28;20033;-81
2022/12/19 01:35:25;;;;;;;48.77;23.63;;;2.00;99.90;;;;;;5033000;28;20050;-80
2022/12/19 01:37:52;;;;;;;50.33;23.87;;;2.10;99.90;;;;;;5031986;28;20492;-80
2022/12/19 01:40:20;;;;;;;49.93;24.40;;;2.10;99.90;;;;;;5031974;28;20429;-82
2022/12/19 01:42:46;;;;;;;47.40;25.40;;;2.10;99.90;;;;;;5032089;28;20461;-82
2022/12/19 01:45:15;;;;;;;46.53;23.23;;;2.10;99.90;;;;;;5031872;28;20128;-82
2022/12/19 01:47:58;;;;;;;40.87;21.90;;;2.20;99.90;;;;;;5031856;28;20121;-82
2022/12/19 01:50:39;;;;;;;43.35;22.50;;;2.20;99.90;;;;;;5032825;28;20049;-82
2022/12/19 01:53:08;;;;;;;41.87;22.13;;;2.20;99.90;;;;;;5031962;28;20033;-82
2022/12/19 01:55:35;;;;;;;46.33;22.40;;;2.30;99.90;;;;;;5032728;28;20533;-82
2022/12/19 01:58:01;;;;;;;44.43;22.77;;;2.40;99.90;;;;;;5032924;28;20055;-81
2022/12/19 02:00:26;;;;;;;42.43;22.77;;;2.30;99.90;;;;;;5031537;28;20092;-82
2022/12/19 02:02:58;;;;;;;52.50;24.07;;;2.30;99.90;;;;;;5048795;28;20036;-82
2022/12/19 02:05:24;;;;;;;51.20;26.27;;;2.40;99.90;;;;;;5032995;28;20099;-82
2022/12/19 02:07:51;;;;;;;54.20;25.33;;;2.40;99.90;;;;;;5031724;28;20491;-82
2022/12/19 02:10:16;;;;;;;47.63;25.20;;;2.50;99.90;;;;;;5031317;28;20026;-82
2022/12/19 02:12:44;;;;;;;43.23;22.83;;;2.50;99.90;;;;;;5031361;28;20025;-82
2022/12/19 02:15:11;;;;;;;45.47;23.97;;;2.50;99.90;;;;;;5031710;28;20080;-82
2022/12/19 02:17:45;;;;;;;46.80;24.63;;;2.60;99.90;;;;;;5031545;28;20087;-82
2022/12/19 02:21:04;;;;;;;45.57;24.17;;;2.60;99.90;;;;;;5032221;28;20044;-82
2022/12/19 02:24:05;;;;;;;44.93;23.03;;;2.60;99.90;;;;;;4991198;28;20027;-82
2022/12/19 02:27:07;;;;;;;48.37;25.17;;;2.70;99.90;;;;;;5031708;28;20444;-82
2022/12/19 02:30:06;;;;;;;52.67;26.07;;;2.70;99.90;;;;;;5031422;28;20033;-82
2022/12/19 02:32:33;;;;;;;47.40;23.10;;;2.80;99.90;;;;;;5032906;28;20021;-82
2022/12/19 02:35:20;;;;;;;48.70;24.43;;;2.80;99.90;;;;;;5032473;28;20521;-82
2022/12/19 02:37:54;;;;;;;46.37;24.73;;;2.90;99.90;;;;;;5032673;28;20021;-82
2022/12/19 02:40:25;;;;;;;37.38;17.45;;;2.90;99.90;;;;;;5032418;28;20073;-82
2022/12/19 02:42:58;;;;;;;47.30;23.33;;;3.00;99.90;;;;;;5032225;28;20056;-82
2022/12/19 02:45:26;;;;;;;46.33;24.87;;;3.10;99.90;;;;;;5031552;28;20048;-82
2022/12/19 02:47:52;;;;;;;52.03;26.37;;;3.10;99.90;;;;;;5034170;28;20029;-82
2022/12/19 02:50:18;;;;;;;47.33;25.27;;;3.10;99.90;;;;;;5034311;28;20673;-82
2022/12/19 02:52:46;;;;;;;50.33;26.30;;;3.20;99.90;;;;;;5035929;28;20029;-81
2022/12/19 02:55:22;;;;;;;51.90;26.30;;;3.20;99.90;;;;;;5034763;28;20048;-81
2022/12/19 02:57:50;;;;;;;48.00;24.20;;;3.20;99.90;;;;;;5035831;28;20032;-81
2022/12/19 03:00:21;;;;;;;53.03;25.30;;;3.20;99.90;;;;;;5035838;28;20037;-81
2022/12/19 03:03:12;;;;;;;49.23;25.27;;;3.20;99.90;;;;;;5035543;28;20025;-81
2022/12/19 03:06:04;;;;;;;50.67;24.97;;;3.20;99.90;;;;;;5035440;28;20029;-81
2022/12/19 03:08:35;;;;;;;48.67;25.10;;;3.30;99.90;;;;;;5034763;28;20022;-82
2022/12/19 03:11:07;;;;;;;53.50;26.47;;;3.30;99.90;;;;;;5034398;28;20167;-81
2022/12/19 03:13:42;;;;;;;51.70;26.30;;;3.30;99.90;;;;;;5036045;28;20067;-81
2022/12/19 03:16:09;;;;;;;51.20;25.90;;;3.30;99.90;;;;;;5035869;28;20064;-80
2022/12/19 03:18:36;;;;;;;47.77;23.13;;;3.40;99.90;;;;;;5034316;28;20025;-81
2022/12/19 03:21:19;;;;;;;51.73;24.97;;;3.40;99.90;;;;;;5033692;28;20497;-81
2022/12/19 03:23:47;;;;;;;48.17;24.75;;;3.40;99.90;;;;;;5034365;28;20021;-81
2022/12/19 03:26:19;;;;;;;53.77;25.43;;;3.40;99.90;;;;;;5034346;28;20022;-81
2022/12/19 03:28:55;;;;;;;48.53;24.73;;;3.40;99.90;;;;;;5034377;28;20028;-81
2022/12/19 03:31:25;;;;;;;54.33;25.03;;;3.50;99.90;;;;;;5034335;28;20485;-81
2022/12/19 03:34:01;;;;;;;49.17;26.53;;;3.50;99.90;;;;;;5033805;28;20056;-81
2022/12/19 03:36:32;;;;;;;46.73;23.83;;;3.50;99.90;;;;;;5034044;28;20021;-81
2022/12/19 03:39:00;;;;;;;49.73;24.97;;;3.50;99.90;;;;;;5033996;28;20036;-81
2022/12/19 03:44:13;;;;;;;51.03;26.00;;;3.60;99.90;;;;;;5034985;28;20032;-81
2022/12/19 03:46:45;;;;;;;49.80;24.23;;;3.60;99.90;;;;;;5034015;28;20032;-81
2022/12/19 03:49:11;;;;;;;48.30;25.43;;;3.60;99.90;;;;;;5035237;28;20053;-80
2022/12/19 03:51:53;;;;;;;43.60;23.10;;;3.70;99.90;;;;;;5033595;28;20080;-80
2022/12/19 03:54:24;;;;;;;46.30;24.50;;;3.70;99.90;;;;;;5033526;28;20454;-80
2022/12/19 03:57:06;;;;;;;49.37;24.13;;;3.70;99.90;;;;;;5033500;28;20029;-80
2022/12/19 03:59:59;;;;;;;48.90;22.97;;;3.70;99.90;;;;;;5034030;28;20116;-81
2022/12/19 04:02:25;;;;;;;42.20;20.93;;;3.80;99.90;;;;;;5033714;28;20064;-81
2022/12/19 04:04:59;;;;;;;45.57;23.73;;;3.80;99.90;;;;;;5034786;28;20022;-81
2022/12/19 04:07:25;;;;;;;29.00;16.42;;;3.90;99.90;;;;;;5034495;28;20032;-80
2022/12/19 04:09:52;;;;;;;44.77;23.77;;;3.90;99.90;;;;;;5033510;28;20036;-81
2022/12/19 04:12:24;;;;;;;50.00;22.10;;;3.90;99.90;;;;;;5033381;28;20470;-81
2022/12/19 04:14:50;;;;;;;43.67;22.67;;;4.00;99.90;;;;;;5035023;28;20124;-81
2022/12/19 04:17:50;;;;;;;41.37;22.07;;;4.00;99.90;;;;;;5033518;28;20390;-80
2022/12/19 04:20:21;;;;;;;44.50;22.47;;;4.00;99.90;;;;;;5032471;28;20076;-80
2022/12/19 04:22:57;;;;;;;45.00;22.17;;;4.00;99.90;;;;;;5031119;28;20113;-80
2022/12/19 04:25:34;;;;;;;46.27;21.80;;;4.10;99.90;;;;;;5045884;28;20544;-81
2022/12/19 04:28:04;;;;;;;43.30;22.03;;;4.10;99.90;;;;;;5031803;28;20021;-81
2022/12/19 04:30:31;;;;;;;40.97;20.97;;;4.20;99.90;;;;;;5031258;28;20112;-81
2022/12/19 04:32:57;;;;;;;36.60;20.63;;;4.20;99.90;;;;;;5033975;28;20057;-81
2022/12/19 04:35:23;;;;;;;38.03;20.90;;;4.20;99.90;;;;;;5049424;28;20100;-80
2022/12/19 04:37:48;;;;;;;40.83;21.53;;;4.20;99.90;;;;;;5015158;28;20478;-81
2022/12/19 04:40:14;;;;;;;37.70;19.93;;;4.20;99.90;;;;;;5032930;28;20071;-81
2022/12/19 04:42:40;;;;;;;37.37;19.90;;;4.30;99.90;;;;;;5032780;28;20037;-80
2022/12/19 04:45:06;;;;;;;37.07;20.80;;;4.30;99.90;;;;;;5033077;28;20458;-81
2022/12/19 04:47:31;;;;;;;39.00;20.97;;;4.30;99.90;;;;;;5032318;28;20026;-81
2022/12/19 04:49:57;;;;;;;35.90;20.10;;;4.30;99.90;;;;;;5049022;28;20117;-81
2022/12/19 04:52:22;;;;;;;40.50;21.87;;;4.30;99.90;;;;;;5032717;28;20057;-82
2022/12/19 04:54:48;;;;;;;39.30;20.13;;;4.40;99.90;;;;;;5049277;28;20083;-81
2022/12/19 04:57:14;;;;;;;35.13;19.27;;;4.40;99.90;;;;;;5032148;28;20120;-82
2022/12/19 04:59:39;;;;;;;35.63;19.77;;;4.40;99.90;;;;;;5032444;28;20413;-82
2022/12/19 05:02:05;;;;;;;36.77;19.80;;;4.50;99.90;;;;;;5032685;28;20036;-81
2022/12/19 05:04:30;;;;;;;36.20;20.53;;;4.50;99.90;;;;;;5032603;28;20032;-81
2022/12/19 05:06:56;;;;;;;39.23;21.67;;;4.50;99.90;;;;;;5032564;28;20065;-81
2022/12/19 05:09:22;;;;;;;37.57;21.23;;;4.50;99.90;;;;;;5032040;28;20025;-82
2022/12/19 05:11:48;;;;;;;37.70;19.13;;;4.50;99.90;;;;;;5031780;28;20488;-81
2022/12/19 05:14:14;;;;;;;34.53;20.40;;;4.50;99.90;;;;;;5032440;28;20029;-82
2022/12/19 05:16:40;;;;;;;34.10;19.53;;;4.60;99.90;;;;;;5015946;28;20042;-81
2022/12/19 05:19:06;;;;;;;34.67;18.40;;;4.60;99.90;;;;;;5048725;28;20026;-82
2022/12/19 05:21:31;;;;;;;34.33;20.43;;;4.60;99.90;;;;;;5032969;28;20049;-82
2022/12/19 05:23:57;;;;;;;33.10;19.20;;;4.60;99.90;;;;;;5032026;28;20381;-81
2022/12/19 05:26:23;;;;;;;35.10;20.43;;;4.70;99.90;;;;;;5048232;28;20056;-82
2022/12/19 05:28:48;;;;;;;36.13;20.17;;;4.70;99.90;;;;;;5032230;28;20029;-82
2022/12/19 05:31:18;;;;;;;37.07;19.53;;;4.60;99.90;;;;;;5031847;28;20030;-81
2022/12/19 05:33:45;;;;;;;34.43;19.57;;;4.70;99.90;;;;;;5031969;28;20128;-82
2022/12/19 05:36:12;;;;;;;32.73;19.90;;;4.60;99.90;;;;;;5031556;28;20045;-82
2022/12/19 05:38:37;;;;;;;34.10;20.33;;;4.70;99.90;;;;;;5048469;28;20036;-82
2022/12/19 05:41:12;;;;;;;36.77;19.83;;;4.70;99.90;;;;;;5031821;28;20041;-81
2022/12/19 05:43:38;;;;;;;33.07;18.90;;;4.80;99.90;;;;;;5031747;28;20028;-81
2022/12/19 05:46:05;;;;;;;33.70;18.63;;;4.80;99.90;;;;;;5032184;28;20034;-81
2022/12/19 05:48:30;;;;;;;33.07;18.00;;;4.80;99.90;;;;;;5048574;28;20029;-81
2022/12/19 05:50:56;;;;;;;33.83;17.27;;;4.80;99.90;;;;;;5031346;28;20420;-82
2022/12/19 05:53:21;;;;;;;29.27;17.83;;;4.90;99.90;;;;;;5031630;28;20032;-82
2022/12/19 05:55:47;;;;;;;29.50;17.13;;;4.90;99.90;;;;;;5048322;28;20469;-82
2022/12/19 05:58:13;;;;;;;31.13;16.50;;;4.90;99.90;;;;;;5033141;28;20033;-81
2022/12/19 06:00:39;;;;;;;26.30;16.37;;;4.90;99.90;;;;;;5031536;28;20140;-82
2022/12/19 06:03:04;;;;;;;28.97;15.93;;;5.00;99.90;;;;;;5031701;28;20044;-82
2022/12/19 06:05:30;;;;;;;30.03;16.97;;;5.00;99.90;;;;;;5048278;28;20037;-82
2022/12/19 06:07:56;;;;;;;27.17;16.43;;;5.00;99.90;;;;;;5032558;28;20029;-82
2022/12/19 06:10:22;;;;;;;25.20;14.23;;;5.00;99.90;;;;;;5048070;28;20462;-82
2022/12/19 06:12:47;;;;;;;26.30;15.30;;;5.00;99.90;;;;;;5031781;28;20025;-82
2022/12/19 06:15:13;;;;;;;25.07;15.23;;;5.10;99.90;;;;;;5032492;28;20030;-81
2022/12/19 06:17:38;;;;;;;24.97;15.17;;;5.20;99.90;;;;;;5048346;28;20451;-81
2022/12/19 06:20:05;;;;;;;25.67;15.13;;;5.20;99.90;;;;;;5047595;28;20041;-82
2022/12/19 06:22:32;;;;;;;27.57;16.07;;;5.20;99.90;;;;;;5050633;28;20121;-81
2022/12/19 06:24:58;;;;;;;27.97;16.43;;;5.20;99.90;;;;;;5035426;28;20022;-81
2022/12/19 06:27:24;;;;;;;24.63;14.90;;;5.30;99.90;;;;;;5035539;28;20067;-81
2022/12/19 06:29:49;;;;;;;28.63;16.27;;;5.20;99.90;;;;;;5036406;28;20063;-82
2022/12/19 06:32:15;;;;;;;27.53;15.43;;;5.30;99.90;;;;;;5051943;28;20481;-82
2022/12/19 06:34:40;;;;;;;26.13;15.43;;;5.40;99.90;;;;;;5036328;28;20089;-82
2022/12/19 06:37:06;;;;;;;24.53;15.97;;;5.50;99.90;;;;;;5036400;28;20038;-82
2022/12/19 06:39:31;;;;;;;29.57;16.27;;;5.40;99.90;;;;;;5035271;28;20026;-82
2022/12/19 06:44:42;;;;;;;25.73;14.57;;;5.50;99.90;;;;;;5049285;28;20044;-82
2022/12/19 06:47:07;;;;;;;26.07;15.93;;;5.50;99.90;;;;;;5020108;28;20064;-81
2022/12/19 06:49:33;;;;;;;24.93;14.63;;;5.60;99.90;;;;;;5037125;28;20452;-81
2022/12/19 06:51:59;;;;;;;24.03;15.43;;;5.60;99.90;;;;;;5030028;28;20384;-82
2022/12/19 06:54:25;;;;;;;28.83;15.20;;;5.60;99.90;;;;;;5043125;28;20125;-82
2022/12/19 06:56:50;;;;;;;26.20;14.43;;;5.70;99.90;;;;;;5014722;28;20029;-82
2022/12/19 06:59:16;;;;;;;27.00;14.63;;;5.70;99.90;;;;;;5031998;28;20114;-82
2022/12/19 07:01:57;;;;;;;24.37;15.30;;;5.80;99.90;;;;;;5000087;28;20022;-82
2022/12/19 07:04:30;;;;;;;23.63;14.10;;;5.80;99.90;;;;;;5026816;28;20033;-82
2022/12/19 07:06:56;;;;;;;20.70;12.87;;;5.80;99.90;;;;;;5031502;28;20075;-82
2022/12/19 07:09:22;;;;;;;20.20;11.83;;;5.90;99.90;;;;;;5045707;28;20040;-83
2022/12/19 07:11:48;;;;;;;20.07;12.30;;;6.00;99.90;;;;;;5033921;28;20037;-82
2022/12/19 07:14:13;;;;;;;15.77;10.20;;;6.00;99.90;;;;;;5046670;28;20029;-82
2022/12/19 07:16:40;;;;;;;17.73;10.60;;;6.10;99.90;;;;;;5034888;28;20095;-82
2022/12/19 07:19:07;;;;;;;20.13;11.23;;;6.20;99.90;;;;;;5027737;28;20504;-81
2022/12/19 07:21:33;;;;;;;17.57;10.13;;;6.20;99.90;;;;;;5033096;28;20048;-82
2022/12/19 07:23:59;;;;;;;18.70;11.00;;;6.20;99.90;;;;;;5033286;28;20377;-82
2022/12/19 07:26:25;;;;;;;19.40;11.13;;;6.20;99.90;;;;;;5032638;28;20112;-82
2022/12/19 07:28:52;;;;;;;21.40;11.37;;;6.40;99.90;;;;;;5033375;28;20030;-81
2022/12/19 07:31:18;;;;;;;17.60;10.57;;;6.40;99.90;;;;;;5032888;28;20052;-82
2022/12/19 07:33:43;;;;;;;24.23;10.23;;;6.50;99.90;;;;;;5032583;28;20065;-82
2022/12/19 07:36:09;;;;;;;16.00;9.93;;;6.50;99.90;;;;;;5050849;28;20073;-84
2022/12/19 07:38:35;;;;;;;16.40;9.63;;;6.50;99.90;;;;;;5050854;28;20413;-83
2022/12/19 07:41:01;;;;;;;20.30;10.80;;;6.60;99.90;;;;;;5034043;28;20061;-83
2022/12/19 07:43:27;;;;;;;15.67;9.57;;;6.50;99.90;;;;;;5050923;28;20053;-83
2022/12/19 07:45:53;;;;;;;15.93;9.53;;;6.70;99.90;;;;;;5017033;28;20021;-82
2022/12/19 07:48:19;;;;;;;15.03;9.03;;;6.80;99.90;;;;;;5033953;28;20061;-82
2022/12/19 07:50:45;;;;;;;14.90;9.13;;;6.80;99.90;;;;;;5033204;28;20477;-82
2022/12/19 07:53:11;;;;;;;18.13;9.93;;;6.80;99.90;;;;;;5017219;28;20417;-82
2022/12/19 07:55:36;;;;;;;19.43;10.37;;;6.90;99.90;;;;;;5034810;28;20060;-83
2022/12/19 07:58:02;;;;;;;17.60;10.37;;;6.90;99.90;;;;;;5034266;28;20057;-85
2022/12/19 08:00:30;;;;;;;13.03;8.03;;;7.00;99.90;;;;;;5033418;28;20500;-83
2022/12/19 08:02:57;;;;;;;13.23;8.97;;;7.00;99.90;;;;;;5033701;28;20034;-83
2022/12/19 08:05:22;;;;;;;15.27;9.37;;;7.00;99.90;;;;;;5033384;28;20033;-83
2022/12/19 08:07:48;;;;;;;16.83;9.83;;;7.10;99.90;;;;;;5016528;28;20064;-82
2022/12/19 08:10:14;;;;;;;17.80;11.40;;;7.10;99.90;;;;;;5032710;28;20485;-82
2022/12/19 08:12:40;;;;;;;15.23;9.40;;;7.20;99.90;;;;;;5033030;28;20025;-82
2022/12/19 08:15:06;;;;;;;16.77;9.50;;;7.40;99.90;;;;;;5034431;28;20030;-83
2022/12/19 08:17:32;;;;;;;15.37;9.00;;;7.30;99.90;;;;;;5049287;28;20087;-78
2022/12/19 08:19:58;;;;;;;13.10;8.73;;;7.30;99.90;;;;;;5033065;28;20040;-81
2022/12/19 08:22:23;;;;;;;15.83;8.97;;;7.40;99.90;;;;;;5033330;28;20029;-81
2022/12/19 08:24:49;;;;;;;15.23;9.53;;;7.40;99.90;;;;;;5032676;28;20077;-79
2022/12/19 08:27:15;;;;;;;16.93;9.00;;;7.50;99.90;;;;;;5031604;28;20099;-80
2022/12/19 08:29:41;;;;;;;16.77;10.00;;;7.50;99.90;;;;;;5016033;28;20065;-81
2022/12/19 08:32:07;;;;;;;14.47;8.70;;;7.50;99.90;;;;;;4998901;28;20056;-79
2022/12/19 08:34:32;;;;;;;16.23;9.03;;;7.60;99.90;;;;;;5016404;28;20132;-81
2022/12/19 08:36:58;;;;;;;14.83;8.80;;;7.50;99.90;;;;;;5033266;28;20037;-79
2022/12/19 08:39:23;;;;;;;12.90;7.23;;;7.60;99.90;;;;;;5032475;28;20035;-79
2022/12/19 08:41:49;;;;;;;15.40;8.57;;;7.60;99.90;;;;;;5031928;28;20033;-82
2022/12/19 08:44:15;;;;;;;16.80;9.23;;;7.60;99.90;;;;;;5032421;28;20433;-79
2022/12/19 08:46:40;;;;;;;15.97;8.97;;;7.50;99.90;;;;;;5049017;28;20052;-83
2022/12/19 08:49:06;;;;;;;15.40;8.93;;;7.60;99.90;;;;;;5048647;28;20068;-79
2022/12/19 08:51:32;;;;;;;16.10;8.50;;;7.60;99.90;;;;;;5032150;28;20541;-80
2022/12/19 08:53:57;;;;;;;14.43;8.47;;;7.60;99.90;;;;;;5031674;28;20030;-80
2022/12/19 08:56:23;;;;;;;16.33;8.93;;;7.60;99.90;;;;;;5032713;28;20121;-79
2022/12/19 08:58:50;;;;;;;15.57;9.27;;;7.70;99.90;;;;;;5048572;28;20466;-78
2022/12/19 09:01:18;;;;;;;18.37;9.87;;;7.70;99.90;;;;;;5033858;28;20060;-81
2022/12/19 09:03:45;;;;;;;15.17;8.40;;;7.70;99.90;;;;;;5033350;28;20026;-78
2022/12/19 09:06:12;;;;;;;15.27;8.77;;;7.70;99.90;;;;;;5031508;28;20014;-78
2022/12/19 09:08:39;;;;;;;13.70;8.30;;;7.70;99.90;;;;;;5031244;28;20034;-78
2022/12/19 09:11:06;;;;;;;14.97;8.70;;;7.70;99.90;;;;;;5033560;28;20025;-78
2022/12/19 09:13:32;;;;;;;14.47;9.10;;;7.80;99.90;;;;;;5033273;28;20030;-78
2022/12/19 09:16:07;;;;;;;17.10;8.30;;;7.70;99.90;;;;;;5048692;28;20040;-78
2022/12/19 09:18:33;;;;;;;14.23;8.60;;;7.80;99.90;;;;;;5032228;28;20026;-78
2022/12/19 09:21:00;;;;;;;14.07;8.30;;;7.90;99.90;;;;;;5031116;28;20145;-77
2022/12/19 09:23:27;;;;;;;16.37;9.27;;;7.80;99.90;;;;;;5033225;28;20026;-77
2022/12/19 09:26:00;;;;;;;16.23;9.27;;;7.80;99.90;;;;;;5048406;28;20031;-77
2022/12/19 09:28:26;;;;;;;16.40;9.37;;;7.70;99.90;;;;;;5032214;28;20048;-77
2022/12/19 09:30:56;;;;;;;13.53;8.60;;;7.80;99.90;;;;;;5033120;28;20748;-77
2022/12/19 09:33:22;;;;;;;14.47;7.63;;;7.80;99.90;;;;;;5032964;28;20030;-78
2022/12/19 09:35:52;;;;;;;15.87;8.40;;;7.80;99.90;;;;;;5032836;28;20053;-78
2022/12/19 09:38:19;;;;;;;15.23;8.70;;;7.80;99.90;;;;;;5032755;28;20035;-78
2022/12/19 09:40:56;;;;;;;15.20;9.27;;;7.80;99.90;;;;;;5031524;28;20095;-77
2022/12/19 09:43:31;;;;;;;14.97;8.90;;;7.90;99.90;;;;;;5031698;28;20033;-77
2022/12/19 09:46:17;;;;;;;16.17;8.63;;;8.00;99.90;;;;;;5031130;28;20033;-78
2022/12/19 09:48:46;;;;;;;15.13;8.00;;;7.90;99.90;;;;;;5028654;28;20025;-78
2022/12/19 09:51:25;;;;;;;12.70;7.63;;;7.90;99.90;;;;;;5011226;28;20124;-83
2022/12/19 09:54:16;;;;;;;17.17;8.93;;;7.90;99.90;;;;;;5030980;28;20087;-78
2022/12/19 09:56:44;;;;;;;14.17;7.63;;;7.90;99.90;;;;;;5033871;28;20041;-77
2022/12/19 09:59:39;;;;;;;17.30;8.70;;;8.00;99.90;;;;;;5037499;28;20037;-77
2022/12/19 10:02:22;;;;;;;13.73;8.73;;;8.00;99.90;;;;;;5037824;28;20509;-78
2022/12/19 10:04:54;;;;;;;14.90;8.07;;;8.00;99.90;;;;;;5038347;28;20078;-78
2022/12/19 10:07:21;;;;;;;15.10;8.03;;;8.00;99.90;;;;;;5039459;28;20033;-78
2022/12/19 10:09:47;;;;;;;20.77;9.47;;;8.00;99.90;;;;;;5037591;28;20029;-77
2022/12/19 10:12:24;;;;;;;13.70;7.97;;;8.10;99.90;;;;;;5039425;28;20025;-77
2022/12/19 10:14:59;;;;;;;15.13;8.47;;;8.10;99.90;;;;;;5039090;28;20422;-78
2022/12/19 10:17:49;;;;;;;13.00;7.10;;;8.10;99.90;;;;;;5037970;28;20026;-78
2022/12/19 10:20:29;;;;;;;11.23;7.20;;;8.10;99.90;;;;;;5038711;28;20045;-78
2022/12/19 10:23:34;;;;;;;16.00;8.23;;;8.20;99.90;;;;;;5037630;28;20488;-78
2022/12/19 10:26:12;;;;;;;15.00;8.25;;;8.20;99.90;;;;;;5031550;28;20033;-78
2022/12/19 10:28:56;;;;;;;11.57;7.13;;;8.20;99.90;;;;;;5039241;28;20025;-78
2022/12/19 10:31:28;;;;;;;14.38;7.78;;;8.20;99.90;;;;;;5038109;28;20034;-78
2022/12/19 10:34:18;;;;;;;18.97;8.13;;;8.20;99.90;;;;;;5037715;28;20075;-77
2022/12/19 10:36:49;;;;;;;12.70;7.23;;;8.20;99.90;;;;;;5037941;28;20048;-78
2022/12/19 10:39:20;;;;;;;12.63;6.53;;;8.30;99.90;;;;;;5037091;28;20100;-80
2022/12/19 10:41:50;;;;;;;11.63;7.10;;;8.30;99.90;;;;;;5037241;28;20489;-78
2022/12/19 10:44:16;;;;;;;13.07;7.13;;;8.30;99.90;;;;;;5038441;28;20074;-78
2022/12/19 10:46:46;;;;;;;13.10;7.43;;;8.40;99.90;;;;;;5038475;28;20420;-80
2022/12/19 10:49:17;;;;;;;11.57;6.37;;;8.40;99.90;;;;;;5038521;28;20535;-78
2022/12/19 10:51:55;;;;;;;11.47;6.63;;;8.40;99.90;;;;;;5039096;28;20061;-78
2022/12/19 10:54:25;;;;;;;11.33;6.90;;;8.40;99.90;;;;;;5038123;28;20030;-80
2022/12/19 10:56:50;;;;;;;11.20;6.93;;;8.50;99.90;;;;;;5038560;28;20026;-80
2022/12/19 10:59:18;;;;;;;10.73;6.17;;;8.50;99.90;;;;;;5053920;28;20028;-81
2022/12/19 11:01:47;;;;;;;11.67;6.53;;;8.50;99.90;;;;;;5037262;28;20095;-82
2022/12/19 11:04:17;;;;;;;11.50;6.57;;;8.60;99.90;;;;;;5036371;28;20362;-82
2022/12/19 11:06:47;;;;;;;10.13;5.90;;;8.60;99.90;;;;;;5038811;28;20025;-81
2022/12/19 11:09:31;;;;;;;10.97;6.23;;;8.70;99.90;;;;;;5049507;28;20027;-83
2022/12/19 11:12:12;;;;;;;12.20;6.40;;;8.60;99.90;;;;;;5033651;28;20405;-80
2022/12/19 11:14:44;;;;;;;12.13;6.00;;;8.70;99.90;;;;;;5050812;28;20314;-79
2022/12/19 11:17:34;;;;;;;12.03;6.10;;;8.70;99.90;;;;;;5032704;28;20029;-78
2022/12/19 11:20:16;;;;;;;12.40;6.80;;;8.70;99.90;;;;;;5033225;28;20064;-79
2022/12/19 11:22:56;;;;;;;11.60;6.17;;;8.80;99.90;;;;;;5035488;28;20087;-81
2022/12/19 11:25:31;;;;;;;9.63;5.77;;;8.80;99.90;;;;;;5034463;28;20485;-81
2022/12/19 11:27:58;;;;;;;12.33;6.53;;;8.80;99.90;;;;;;5035312;28;20474;-82
2022/12/19 11:30:26;;;;;;;12.17;6.10;;;8.80;99.90;;;;;;5034005;28;20557;-80
2022/12/19 11:33:12;;;;;;;9.67;6.00;;;8.80;99.90;;;;;;5034324;28;20033;-82
2022/12/19 11:35:50;;;;;;;11.10;6.17;;;8.90;99.90;;;;;;5034391;28;20123;-81
2022/12/19 11:38:38;;;;;;;12.57;6.13;;;8.90;99.90;;;;;;5033914;28;20033;-81
2022/12/19 11:41:22;;;;;;;10.10;5.80;;;8.90;99.90;;;;;;5023299;28;20045;-81
2022/12/19 11:43:57;;;;;;;10.27;5.43;;;8.90;99.90;;;;;;5033314;28;20036;-79
2022/12/19 11:46:49;;;;;;;9.47;5.60;;;8.90;99.90;;;;;;5034632;28;20044;-79
2022/12/19 11:49:26;;;;;;;11.40;5.90;;;8.90;99.90;;;;;;5050370;28;20025;-79
2022/12/19 11:52:15;;;;;;;10.47;5.73;;;8.90;99.90;;;;;;5034374;28;20025;-79
2022/12/19 11:54:58;;;;;;;15.67;6.60;;;8.90;99.90;;;;;;5027217;28;20116;-78
2022/12/19 11:57:25;;;;;;;12.67;6.37;;;9.00;99.90;;;;;;5034587;28;20026;-78
2022/12/19 11:59:52;;;;;;;8.40;5.00;;;9.00;99.90;;;;;;5033282;28;20490;-78
2022/12/19 12:02:32;;;;;;;11.80;5.37;;;9.00;99.90;;;;;;5017054;28;20111;-78
2022/12/19 12:05:06;;;;;;;10.07;5.03;;;9.00;99.90;;;;;;5033513;28;20022;-79
2022/12/19 12:07:37;;;;;;;10.90;5.63;;;9.00;99.90;;;;;;5035231;28;20026;-78
2022/12/19 12:10:19;;;;;;;12.00;6.57;;;9.00;99.90;;;;;;5049919;28;20025;-78
2022/12/19 12:13:09;;;;;;;9.40;5.10;;;9.10;99.90;;;;;;5033449;28;20045;-78
2022/12/19 12:15:46;;;;;;;8.87;5.50;;;9.10;99.90;;;;;;5034351;28;20026;-78
2022/12/19 12:18:36;;;;;;;9.23;5.37;;;9.10;99.90;;;;;;5034243;28;20026;-78
2022/12/19 12:21:43;;;;;;;8.67;4.77;;;9.20;99.90;;;;;;5048768;28;20045;-78
2022/12/19 12:24:23;;;;;;;10.87;4.23;;;9.20;99.90;;;;;;5030443;28;20031;-77
2022/12/19 12:27:12;;;;;;;9.47;5.17;;;9.20;99.90;;;;;;5033193;28;20108;-78
2022/12/19 12:29:48;;;;;;;10.07;5.60;;;9.30;99.90;;;;;;5047758;28;20446;-78
2022/12/19 12:32:26;;;;;;;8.77;4.43;;;9.30;99.90;;;;;;5048576;28;20032;-78
2022/12/19 12:34:54;;;;;;;9.33;4.97;;;9.40;99.90;;;;;;5049322;28;20055;-78
2022/12/19 12:37:32;;;;;;;9.27;4.50;;;9.40;99.90;;;;;;5049765;28;20421;-78
2022/12/19 12:40:19;;;;;;;7.57;4.63;;;9.50;99.90;;;;;;5048414;28;20034;-77
2022/12/19 12:43:07;;;;;;;7.77;3.77;;;9.50;99.90;;;;;;5049242;28;20022;-78
2022/12/19 12:45:44;;;;;;;8.83;3.97;;;9.50;99.90;;;;;;5027328;28;20037;-77
2022/12/19 12:48:33;;;;;;;8.80;4.83;;;9.60;99.90;;;;;;5033617;28;20060;-78
2022/12/19 12:51:00;;;;;;;10.80;4.67;;;9.60;99.90;;;;;;5032022;28;20026;-78
2022/12/19 12:53:32;;;;;;;8.80;4.30;;;9.60;99.90;;;;;;5048689;28;20045;-79
2022/12/19 12:56:00;;;;;;;11.37;4.40;;;9.60;99.90;;;;;;5032014;28;20021;-79
2022/12/19 12:58:54;;;;;;;8.57;3.47;;;9.70;99.90;;;;;;5048315;28;20029;-78
2022/12/19 13:01:28;;;;;;;8.40;4.17;;;9.70;99.90;;;;;;5031642;28;20415;-83
2022/12/19 13:04:31;;;;;;;7.60;3.97;;;9.80;99.90;;;;;;5031669;28;20367;-82
2022/12/19 13:07:11;;;;;;;7.43;3.47;;;9.80;99.90;;;;;;5011898;28;20040;-85